sensor_id;sensor_type;location;lat;lon;timestamp;P1;durP1;ratioP1;P2;durP2;ratioP2
21258;SDS011;10787;53.364;-1.480;2024-03-08T00:00:29;26.70;;;14.07;;
21258;SDS011;10787;53.364;-1.480;2024-03-08T00:03:16;27.40;;;14.40;;
21258;SDS011;10787;53.364;-1.480;2024-03-08T00:06:00;27.60;;;14.07;;
21258;SDS011;10787;53.364;-1.480;2024-03-08T00:08:45;26.20;;;14.43;;
21258;SDS011;10787;53.364;-1.480;2024-03-08T00:11:29;30.47;;;14.83;;
21258;SDS011;10787;53.364;-1.480;2024-03-08T00:14:14;28.00;;;14.57;;
21258;SDS011;10787;53.364;-1.480;2024-03-08T00:16:59;31.20;;;15.10;;
21258;SDS011;10787;53.364;-1.480;2024-03-08T00:19:44;26.50;;;15.50;;
21258;SDS011;10787;53.364;-1.480;2024-03-08T00:22:28;27.40;;;15.63;;
21258;SDS011;10787;53.364;-1.480;2024-03-08T00:25:14;30.33;;;16.00;;
21258;SDS011;10787;53.364;-1.480;2024-03-08T00:27:59;32.90;;;15.97;;
21258;SDS011;10787;53.364;-1.480;2024-03-08T00:30:44;33.23;;;15.70;;
21258;SDS011;10787;53.364;-1.480;2024-03-08T00:33:30;30.37;;;15.93;;
21258;SDS011;10787;53.364;-1.480;2024-03-08T00:36:14;30.47;;;16.00;;
21258;SDS011;10787;53.364;-1.480;2024-03-08T00:38:58;32.50;;;16.23;;
21258;SDS011;10787;53.364;-1.480;2024-03-08T00:41:44;32.00;;;16.60;;
21258;SDS011;10787;53.364;-1.480;2024-03-08T00:44:28;31.97;;;16.80;;
21258;SDS011;10787;53.364;-1.480;2024-03-08T00:47:12;32.50;;;16.27;;
21258;SDS011;10787;53.364;-1.480;2024-03-08T00:49:57;32.90;;;17.47;;
21258;SDS011;10787;53.364;-1.480;2024-03-08T00:52:41;35.60;;;17.10;;
21258;SDS011;10787;53.364;-1.480;2024-03-08T00:55:26;33.27;;;18.10;;
21258;SDS011;10787;53.364;-1.480;2024-03-08T00:58:11;34.23;;;17.70;;
21258;SDS011;10787;53.364;-1.480;2024-03-08T01:00:55;39.73;;;17.83;;
21258;SDS011;10787;53.364;-1.480;2024-03-08T01:03:42;41.60;;;17.27;;
21258;SDS011;10787;53.364;-1.480;2024-03-08T01:06:27;33.63;;;16.93;;
21258;SDS011;10787;53.364;-1.480;2024-03-08T01:09:11;35.97;;;17.53;;
21258;SDS011;10787;53.364;-1.480;2024-03-08T01:11:57;37.70;;;18.17;;
21258;SDS011;10787;53.364;-1.480;2024-03-08T01:14:44;34.07;;;17.93;;
21258;SDS011;10787;53.364;-1.480;2024-03-08T01:17:28;38.47;;;18.97;;
21258;SDS011;10787;53.364;-1.480;2024-03-08T01:20:12;36.20;;;19.07;;
21258;SDS011;10787;53.364;-1.480;2024-03-08T01:22:56;38.97;;;19.67;;
21258;SDS011;10787;53.364;-1.480;2024-03-08T01:25:40;42.63;;;19.03;;
21258;SDS011;10787;53.364;-1.480;2024-03-08T01:28:27;40.13;;;20.03;;
21258;SDS011;10787;53.364;-1.480;2024-03-08T01:31:12;40.87;;;19.77;;
21258;SDS011;10787;53.364;-1.480;2024-03-08T01:33:58;41.10;;;20.13;;
21258;SDS011;10787;53.364;-1.480;2024-03-08T01:36:42;42.30;;;21.47;;
21258;SDS011;10787;53.364;-1.480;2024-03-08T01:39:27;41.60;;;20.70;;
21258;SDS011;10787;53.364;-1.480;2024-03-08T01:42:11;40.60;;;20.37;;
21258;SDS011;10787;53.364;-1.480;2024-03-08T01:44:58;40.80;;;21.33;;
21258;SDS011;10787;53.364;-1.480;2024-03-08T01:47:43;40.77;;;20.43;;
21258;SDS011;10787;53.364;-1.480;2024-03-08T01:50:27;46.37;;;20.67;;
21258;SDS011;10787;53.364;-1.480;2024-03-08T01:53:12;44.13;;;21.10;;
21258;SDS011;10787;53.364;-1.480;2024-03-08T01:55:58;43.67;;;21.10;;
21258;SDS011;10787;53.364;-1.480;2024-03-08T01:58:44;41.07;;;20.97;;
21258;SDS011;10787;53.364;-1.480;2024-03-08T02:01:30;41.20;;;20.73;;
21258;SDS011;10787;53.364;-1.480;2024-03-08T02:04:15;46.53;;;21.23;;
21258;SDS011;10787;53.364;-1.480;2024-03-08T02:07:00;41.03;;;20.80;;
21258;SDS011;10787;53.364;-1.480;2024-03-08T02:09:44;42.13;;;20.67;;
21258;SDS011;10787;53.364;-1.480;2024-03-08T02:12:29;45.53;;;21.40;;
21258;SDS011;10787;53.364;-1.480;2024-03-08T02:15:17;44.03;;;20.83;;
21258;SDS011;10787;53.364;-1.480;2024-03-08T02:18:01;41.63;;;20.63;;
21258;SDS011;10787;53.364;-1.480;2024-03-08T02:20:50;42.43;;;21.03;;
21258;SDS011;10787;53.364;-1.480;2024-03-08T02:23:35;43.37;;;20.67;;
21258;SDS011;10787;53.364;-1.480;2024-03-08T02:26:20;40.67;;;20.57;;
21258;SDS011;10787;53.364;-1.480;2024-03-08T02:29:04;41.97;;;21.33;;
21258;SDS011;10787;53.364;-1.480;2024-03-08T02:31:50;43.97;;;20.93;;
21258;SDS011;10787;53.364;-1.480;2024-03-08T02:34:35;42.10;;;20.23;;
21258;SDS011;10787;53.364;-1.480;2024-03-08T02:37:20;39.70;;;19.90;;
21258;SDS011;10787;53.364;-1.480;2024-03-08T02:40:04;39.70;;;20.07;;
21258;SDS011;10787;53.364;-1.480;2024-03-08T02:42:49;41.47;;;20.50;;
21258;SDS011;10787;53.364;-1.480;2024-03-08T02:45:33;42.33;;;19.63;;
21258;SDS011;10787;53.364;-1.480;2024-03-08T02:48:18;42.13;;;21.10;;
21258;SDS011;10787;53.364;-1.480;2024-03-08T02:51:03;41.50;;;20.50;;
21258;SDS011;10787;53.364;-1.480;2024-03-08T02:53:47;38.63;;;20.03;;
21258;SDS011;10787;53.364;-1.480;2024-03-08T02:56:32;43.07;;;20.47;;
21258;SDS011;10787;53.364;-1.480;2024-03-08T02:59:19;40.97;;;19.57;;
21258;SDS011;10787;53.364;-1.480;2024-03-08T03:02:03;38.33;;;20.07;;
21258;SDS011;10787;53.364;-1.480;2024-03-08T03:04:47;41.13;;;19.53;;
21258;SDS011;10787;53.364;-1.480;2024-03-08T03:07:32;38.67;;;19.47;;
21258;SDS011;10787;53.364;-1.480;2024-03-08T03:10:20;39.50;;;19.80;;
21258;SDS011;10787;53.364;-1.480;2024-03-08T03:13:05;39.37;;;20.03;;
21258;SDS011;10787;53.364;-1.480;2024-03-08T03:15:50;40.67;;;19.43;;
21258;SDS011;10787;53.364;-1.480;2024-03-08T03:18:35;41.43;;;19.60;;
21258;SDS011;10787;53.364;-1.480;2024-03-08T03:21:20;39.53;;;20.03;;
21258;SDS011;10787;53.364;-1.480;2024-03-08T03:24:04;43.40;;;20.93;;
21258;SDS011;10787;53.364;-1.480;2024-03-08T03:26:53;41.53;;;20.63;;
21258;SDS011;10787;53.364;-1.480;2024-03-08T03:29:38;42.77;;;20.97;;
21258;SDS011;10787;53.364;-1.480;2024-03-08T03:32:25;42.03;;;20.23;;
21258;SDS011;10787;53.364;-1.480;2024-03-08T03:35:10;45.10;;;21.03;;
21258;SDS011;10787;53.364;-1.480;2024-03-08T03:37:54;46.73;;;21.10;;
21258;SDS011;10787;53.364;-1.480;2024-03-08T03:40:49;38.90;;;20.17;;
21258;SDS011;10787;53.364;-1.480;2024-03-08T03:43:36;43.33;;;21.17;;
21258;SDS011;10787;53.364;-1.480;2024-03-08T03:46:24;44.17;;;21.03;;
21258;SDS011;10787;53.364;-1.480;2024-03-08T03:49:09;43.43;;;21.53;;
21258;SDS011;10787;53.364;-1.480;2024-03-08T03:51:53;45.70;;;20.80;;
21258;SDS011;10787;53.364;-1.480;2024-03-08T03:54:37;47.13;;;21.70;;
21258;SDS011;10787;53.364;-1.480;2024-03-08T03:57:22;46.40;;;21.20;;
21258;SDS011;10787;53.364;-1.480;2024-03-08T04:00:06;45.03;;;22.63;;
21258;SDS011;10787;53.364;-1.480;2024-03-08T04:02:54;50.73;;;22.90;;
21258;SDS011;10787;53.364;-1.480;2024-03-08T04:05:42;43.33;;;22.27;;
21258;SDS011;10787;53.364;-1.480;2024-03-08T04:08:26;44.07;;;21.67;;
21258;SDS011;10787;53.364;-1.480;2024-03-08T04:11:10;49.30;;;22.70;;
21258;SDS011;10787;53.364;-1.480;2024-03-08T04:13:55;46.00;;;22.73;;
21258;SDS011;10787;53.364;-1.480;2024-03-08T04:16:39;46.73;;;21.53;;
21258;SDS011;10787;53.364;-1.480;2024-03-08T04:19:23;48.83;;;22.80;;
21258;SDS011;10787;53.364;-1.480;2024-03-08T04:22:09;47.33;;;22.90;;
21258;SDS011;10787;53.364;-1.480;2024-03-08T04:24:53;46.47;;;21.43;;
21258;SDS011;10787;53.364;-1.480;2024-03-08T04:27:38;47.33;;;22.20;;
21258;SDS011;10787;53.364;-1.480;2024-03-08T04:30:22;48.90;;;23.17;;
21258;SDS011;10787;53.364;-1.480;2024-03-08T04:33:07;44.80;;;22.17;;
21258;SDS011;10787;53.364;-1.480;2024-03-08T04:35:52;47.90;;;22.10;;
21258;SDS011;10787;53.364;-1.480;2024-03-08T04:38:36;51.40;;;23.93;;
21258;SDS011;10787;53.364;-1.480;2024-03-08T04:41:24;52.03;;;22.80;;
21258;SDS011;10787;53.364;-1.480;2024-03-08T04:44:08;47.03;;;23.20;;
21258;SDS011;10787;53.364;-1.480;2024-03-08T04:46:54;46.90;;;23.10;;
21258;SDS011;10787;53.364;-1.480;2024-03-08T04:49:38;48.33;;;22.63;;
21258;SDS011;10787;53.364;-1.480;2024-03-08T04:52:23;47.17;;;22.63;;
21258;SDS011;10787;53.364;-1.480;2024-03-08T04:55:07;50.83;;;23.40;;
21258;SDS011;10787;53.364;-1.480;2024-03-08T04:57:53;45.83;;;23.37;;
21258;SDS011;10787;53.364;-1.480;2024-03-08T05:00:52;48.47;;;23.00;;
21258;SDS011;10787;53.364;-1.480;2024-03-08T05:03:36;50.63;;;23.60;;
21258;SDS011;10787;53.364;-1.480;2024-03-08T05:06:22;47.00;;;23.10;;
21258;SDS011;10787;53.364;-1.480;2024-03-08T05:09:07;49.33;;;23.73;;
21258;SDS011;10787;53.364;-1.480;2024-03-08T05:12:00;48.23;;;23.07;;
21258;SDS011;10787;53.364;-1.480;2024-03-08T05:14:45;48.40;;;23.03;;
21258;SDS011;10787;53.364;-1.480;2024-03-08T05:17:33;52.53;;;24.20;;
21258;SDS011;10787;53.364;-1.480;2024-03-08T05:20:17;54.47;;;25.63;;
21258;SDS011;10787;53.364;-1.480;2024-03-08T05:23:03;54.20;;;25.90;;
21258;SDS011;10787;53.364;-1.480;2024-03-08T05:25:48;51.13;;;24.13;;
21258;SDS011;10787;53.364;-1.480;2024-03-08T05:28:33;48.43;;;24.23;;
21258;SDS011;10787;53.364;-1.480;2024-03-08T05:31:18;52.30;;;24.43;;
21258;SDS011;10787;53.364;-1.480;2024-03-08T05:34:06;48.50;;;24.47;;
21258;SDS011;10787;53.364;-1.480;2024-03-08T05:36:53;46.30;;;24.00;;
21258;SDS011;10787;53.364;-1.480;2024-03-08T05:39:38;49.17;;;25.00;;
21258;SDS011;10787;53.364;-1.480;2024-03-08T05:42:22;56.33;;;25.13;;
21258;SDS011;10787;53.364;-1.480;2024-03-08T05:45:06;54.50;;;25.43;;
21258;SDS011;10787;53.364;-1.480;2024-03-08T05:47:52;50.27;;;24.30;;
21258;SDS011;10787;53.364;-1.480;2024-03-08T05:50:36;50.40;;;25.17;;
21258;SDS011;10787;53.364;-1.480;2024-03-08T05:53:20;51.43;;;23.67;;
21258;SDS011;10787;53.364;-1.480;2024-03-08T05:56:04;49.57;;;24.20;;
21258;SDS011;10787;53.364;-1.480;2024-03-08T05:58:49;51.47;;;25.43;;
21258;SDS011;10787;53.364;-1.480;2024-03-08T06:01:34;53.20;;;25.70;;
21258;SDS011;10787;53.364;-1.480;2024-03-08T06:04:20;48.93;;;24.43;;
21258;SDS011;10787;53.364;-1.480;2024-03-08T06:07:04;57.70;;;25.43;;
21258;SDS011;10787;53.364;-1.480;2024-03-08T06:09:48;51.60;;;25.93;;
21258;SDS011;10787;53.364;-1.480;2024-03-08T06:12:33;55.97;;;25.67;;
21258;SDS011;10787;53.364;-1.480;2024-03-08T06:15:25;50.57;;;25.90;;
21258;SDS011;10787;53.364;-1.480;2024-03-08T06:18:09;55.47;;;26.87;;
21258;SDS011;10787;53.364;-1.480;2024-03-08T06:20:55;55.23;;;25.83;;
21258;SDS011;10787;53.364;-1.480;2024-03-08T06:23:40;53.33;;;25.50;;
21258;SDS011;10787;53.364;-1.480;2024-03-08T06:26:24;54.47;;;25.30;;
21258;SDS011;10787;53.364;-1.480;2024-03-08T06:29:11;57.43;;;26.53;;
21258;SDS011;10787;53.364;-1.480;2024-03-08T06:31:56;56.47;;;26.17;;
21258;SDS011;10787;53.364;-1.480;2024-03-08T06:34:41;58.63;;;26.53;;
21258;SDS011;10787;53.364;-1.480;2024-03-08T06:37:26;51.13;;;25.47;;
21258;SDS011;10787;53.364;-1.480;2024-03-08T06:40:11;53.70;;;25.57;;
21258;SDS011;10787;53.364;-1.480;2024-03-08T06:42:57;47.23;;;24.73;;
21258;SDS011;10787;53.364;-1.480;2024-03-08T06:45:42;48.30;;;24.20;;
21258;SDS011;10787;53.364;-1.480;2024-03-08T06:48:32;50.23;;;25.43;;
21258;SDS011;10787;53.364;-1.480;2024-03-08T06:51:16;48.10;;;25.00;;
21258;SDS011;10787;53.364;-1.480;2024-03-08T06:54:01;49.27;;;25.47;;
21258;SDS011;10787;53.364;-1.480;2024-03-08T06:56:52;47.43;;;24.80;;
21258;SDS011;10787;53.364;-1.480;2024-03-08T06:59:37;54.70;;;26.40;;
21258;SDS011;10787;53.364;-1.480;2024-03-08T07:02:21;55.97;;;26.67;;
21258;SDS011;10787;53.364;-1.480;2024-03-08T07:05:08;54.77;;;26.10;;
21258;SDS011;10787;53.364;-1.480;2024-03-08T07:07:54;52.63;;;26.67;;
21258;SDS011;10787;53.364;-1.480;2024-03-08T07:10:38;53.70;;;27.03;;
21258;SDS011;10787;53.364;-1.480;2024-03-08T07:13:25;57.63;;;26.20;;
21258;SDS011;10787;53.364;-1.480;2024-03-08T07:16:10;50.60;;;25.87;;
21258;SDS011;10787;53.364;-1.480;2024-03-08T07:18:55;55.63;;;27.00;;
21258;SDS011;10787;53.364;-1.480;2024-03-08T07:21:42;56.83;;;27.73;;
21258;SDS011;10787;53.364;-1.480;2024-03-08T07:24:28;51.23;;;26.43;;
21258;SDS011;10787;53.364;-1.480;2024-03-08T07:27:48;51.87;;;25.97;;
21258;SDS011;10787;53.364;-1.480;2024-03-08T07:30:36;55.03;;;27.23;;
21258;SDS011;10787;53.364;-1.480;2024-03-08T07:33:26;55.83;;;27.67;;
21258;SDS011;10787;53.364;-1.480;2024-03-08T07:36:11;55.93;;;28.23;;
21258;SDS011;10787;53.364;-1.480;2024-03-08T07:38:55;61.40;;;28.87;;
21258;SDS011;10787;53.364;-1.480;2024-03-08T07:41:41;59.60;;;29.33;;
21258;SDS011;10787;53.364;-1.480;2024-03-08T07:44:25;59.83;;;27.67;;
21258;SDS011;10787;53.364;-1.480;2024-03-08T07:47:10;57.27;;;29.13;;
21258;SDS011;10787;53.364;-1.480;2024-03-08T07:49:54;59.13;;;28.10;;
21258;SDS011;10787;53.364;-1.480;2024-03-08T07:52:38;59.37;;;28.13;;
21258;SDS011;10787;53.364;-1.480;2024-03-08T07:55:25;61.30;;;29.13;;
21258;SDS011;10787;53.364;-1.480;2024-03-08T07:58:10;57.27;;;27.87;;
21258;SDS011;10787;53.364;-1.480;2024-03-08T08:00:55;55.73;;;27.97;;
21258;SDS011;10787;53.364;-1.480;2024-03-08T08:03:39;56.90;;;28.07;;
21258;SDS011;10787;53.364;-1.480;2024-03-08T08:06:25;54.80;;;27.40;;
21258;SDS011;10787;53.364;-1.480;2024-03-08T08:09:10;56.73;;;28.40;;
21258;SDS011;10787;53.364;-1.480;2024-03-08T08:11:58;57.73;;;28.13;;
21258;SDS011;10787;53.364;-1.480;2024-03-08T08:14:42;53.90;;;27.47;;
21258;SDS011;10787;53.364;-1.480;2024-03-08T08:17:26;58.17;;;28.93;;
21258;SDS011;10787;53.364;-1.480;2024-03-08T08:20:10;57.23;;;27.73;;
21258;SDS011;10787;53.364;-1.480;2024-03-08T08:22:56;54.47;;;27.00;;
21258;SDS011;10787;53.364;-1.480;2024-03-08T08:25:45;57.33;;;26.87;;
21258;SDS011;10787;53.364;-1.480;2024-03-08T08:28:30;53.23;;;26.80;;
21258;SDS011;10787;53.364;-1.480;2024-03-08T08:31:14;53.80;;;27.67;;
21258;SDS011;10787;53.364;-1.480;2024-03-08T08:33:59;50.30;;;26.73;;
21258;SDS011;10787;53.364;-1.480;2024-03-08T08:36:43;51.10;;;25.80;;
21258;SDS011;10787;53.364;-1.480;2024-03-08T08:39:28;52.90;;;27.40;;
21258;SDS011;10787;53.364;-1.480;2024-03-08T08:42:13;53.77;;;26.77;;
21258;SDS011;10787;53.364;-1.480;2024-03-08T08:44:57;51.40;;;25.67;;
21258;SDS011;10787;53.364;-1.480;2024-03-08T08:47:42;47.97;;;25.23;;
21258;SDS011;10787;53.364;-1.480;2024-03-08T08:50:27;46.93;;;24.93;;
21258;SDS011;10787;53.364;-1.480;2024-03-08T08:53:12;52.93;;;25.53;;
21258;SDS011;10787;53.364;-1.480;2024-03-08T08:55:58;45.20;;;24.03;;
21258;SDS011;10787;53.364;-1.480;2024-03-08T08:58:42;47.03;;;24.50;;
21258;SDS011;10787;53.364;-1.480;2024-03-08T09:01:26;51.40;;;25.27;;
21258;SDS011;10787;53.364;-1.480;2024-03-08T09:04:12;46.33;;;24.20;;
21258;SDS011;10787;53.364;-1.480;2024-03-08T09:06:56;46.30;;;23.63;;
21258;SDS011;10787;53.364;-1.480;2024-03-08T09:09:41;43.97;;;24.20;;
21258;SDS011;10787;53.364;-1.480;2024-03-08T09:12:26;45.13;;;23.30;;
21258;SDS011;10787;53.364;-1.480;2024-03-08T09:15:11;43.40;;;23.13;;
21258;SDS011;10787;53.364;-1.480;2024-03-08T09:17:56;45.30;;;22.90;;
21258;SDS011;10787;53.364;-1.480;2024-03-08T09:20:40;46.40;;;23.60;;
21258;SDS011;10787;53.364;-1.480;2024-03-08T09:23:25;41.03;;;22.97;;
21258;SDS011;10787;53.364;-1.480;2024-03-08T09:26:13;43.73;;;22.87;;
21258;SDS011;10787;53.364;-1.480;2024-03-08T09:28:59;41.00;;;21.93;;
21258;SDS011;10787;53.364;-1.480;2024-03-08T09:31:43;50.57;;;27.03;;
21258;SDS011;10787;53.364;-1.480;2024-03-08T09:34:30;46.10;;;23.20;;
21258;SDS011;10787;53.364;-1.480;2024-03-08T09:37:14;43.87;;;22.70;;
21258;SDS011;10787;53.364;-1.480;2024-03-08T09:39:58;41.47;;;22.30;;
21258;SDS011;10787;53.364;-1.480;2024-03-08T09:42:43;43.97;;;22.07;;
21258;SDS011;10787;53.364;-1.480;2024-03-08T09:45:28;42.13;;;21.47;;
21258;SDS011;10787;53.364;-1.480;2024-03-08T09:48:19;42.30;;;21.17;;
21258;SDS011;10787;53.364;-1.480;2024-03-08T09:51:04;36.83;;;20.90;;
21258;SDS011;10787;53.364;-1.480;2024-03-08T09:53:48;38.33;;;21.30;;
21258;SDS011;10787;53.364;-1.480;2024-03-08T09:56:32;39.43;;;21.03;;
21258;SDS011;10787;53.364;-1.480;2024-03-08T09:59:18;44.07;;;21.00;;
21258;SDS011;10787;53.364;-1.480;2024-03-08T10:02:12;41.87;;;21.87;;
21258;SDS011;10787;53.364;-1.480;2024-03-08T10:04:58;37.40;;;21.13;;
21258;SDS011;10787;53.364;-1.480;2024-03-08T10:07:43;42.70;;;22.03;;
21258;SDS011;10787;53.364;-1.480;2024-03-08T10:10:27;43.87;;;22.00;;
21258;SDS011;10787;53.364;-1.480;2024-03-08T10:13:12;40.57;;;21.60;;
21258;SDS011;10787;53.364;-1.480;2024-03-08T10:15:57;43.67;;;21.67;;
21258;SDS011;10787;53.364;-1.480;2024-03-08T10:18:41;37.87;;;21.13;;
21258;SDS011;10787;53.364;-1.480;2024-03-08T10:21:26;39.27;;;20.80;;
21258;SDS011;10787;53.364;-1.480;2024-03-08T10:24:10;37.00;;;21.13;;
21258;SDS011;10787;53.364;-1.480;2024-03-08T10:27:00;36.27;;;20.73;;
21258;SDS011;10787;53.364;-1.480;2024-03-08T10:29:48;37.27;;;20.10;;
21258;SDS011;10787;53.364;-1.480;2024-03-08T10:32:34;39.47;;;20.40;;
21258;SDS011;10787;53.364;-1.480;2024-03-08T10:35:18;39.50;;;20.93;;
21258;SDS011;10787;53.364;-1.480;2024-03-08T10:38:04;41.57;;;21.90;;
21258;SDS011;10787;53.364;-1.480;2024-03-08T10:40:52;36.90;;;20.03;;
21258;SDS011;10787;53.364;-1.480;2024-03-08T10:46:39;44.93;;;21.30;;
21258;SDS011;10787;53.364;-1.480;2024-03-08T10:49:55;41.20;;;20.17;;
21258;SDS011;10787;53.364;-1.480;2024-03-08T10:53:04;37.47;;;20.47;;
21258;SDS011;10787;53.364;-1.480;2024-03-08T10:55:50;40.13;;;20.93;;
21258;SDS011;10787;53.364;-1.480;2024-03-08T10:58:36;36.13;;;20.87;;
21258;SDS011;10787;53.364;-1.480;2024-03-08T11:01:22;36.97;;;20.37;;
21258;SDS011;10787;53.364;-1.480;2024-03-08T11:04:09;41.77;;;19.93;;
21258;SDS011;10787;53.364;-1.480;2024-03-08T11:07:00;35.27;;;20.73;;
21258;SDS011;10787;53.364;-1.480;2024-03-08T11:09:51;38.77;;;20.90;;
21258;SDS011;10787;53.364;-1.480;2024-03-08T11:12:38;34.53;;;20.50;;
21258;SDS011;10787;53.364;-1.480;2024-03-08T11:15:23;37.83;;;20.30;;
21258;SDS011;10787;53.364;-1.480;2024-03-08T11:18:08;38.67;;;20.63;;
21258;SDS011;10787;53.364;-1.480;2024-03-08T11:20:54;36.03;;;19.67;;
21258;SDS011;10787;53.364;-1.480;2024-03-08T11:23:38;40.70;;;20.33;;
21258;SDS011;10787;53.364;-1.480;2024-03-08T11:26:27;34.57;;;19.67;;
21258;SDS011;10787;53.364;-1.480;2024-03-08T11:29:33;36.57;;;21.03;;
21258;SDS011;10787;53.364;-1.480;2024-03-08T11:32:23;40.27;;;20.80;;
21258;SDS011;10787;53.364;-1.480;2024-03-08T11:35:22;37.07;;;20.47;;
21258;SDS011;10787;53.364;-1.480;2024-03-08T11:38:09;41.53;;;20.77;;
21258;SDS011;10787;53.364;-1.480;2024-03-08T11:40:53;38.50;;;21.97;;
21258;SDS011;10787;53.364;-1.480;2024-03-08T11:43:40;39.77;;;21.00;;
21258;SDS011;10787;53.364;-1.480;2024-03-08T11:46:25;39.93;;;21.03;;
21258;SDS011;10787;53.364;-1.480;2024-03-08T11:49:11;35.57;;;21.23;;
21258;SDS011;10787;53.364;-1.480;2024-03-08T11:51:56;36.17;;;21.13;;
21258;SDS011;10787;53.364;-1.480;2024-03-08T11:54:41;37.70;;;21.03;;
21258;SDS011;10787;53.364;-1.480;2024-03-08T11:57:31;33.17;;;20.07;;
21258;SDS011;10787;53.364;-1.480;2024-03-08T12:00:16;38.33;;;20.93;;
21258;SDS011;10787;53.364;-1.480;2024-03-08T12:03:09;33.60;;;20.67;;
21258;SDS011;10787;53.364;-1.480;2024-03-08T12:05:57;38.57;;;21.13;;
21258;SDS011;10787;53.364;-1.480;2024-03-08T12:08:43;39.03;;;21.50;;
21258;SDS011;10787;53.364;-1.480;2024-03-08T12:11:27;33.70;;;20.07;;
21258;SDS011;10787;53.364;-1.480;2024-03-08T12:14:12;35.80;;;20.83;;
21258;SDS011;10787;53.364;-1.480;2024-03-08T12:16:57;35.10;;;19.97;;
21258;SDS011;10787;53.364;-1.480;2024-03-08T12:19:45;32.33;;;20.23;;
21258;SDS011;10787;53.364;-1.480;2024-03-08T12:22:31;32.57;;;19.43;;
21258;SDS011;10787;53.364;-1.480;2024-03-08T12:25:15;35.37;;;19.67;;
21258;SDS011;10787;53.364;-1.480;2024-03-08T12:28:07;32.87;;;19.97;;
21258;SDS011;10787;53.364;-1.480;2024-03-08T12:30:59;31.40;;;19.33;;
21258;SDS011;10787;53.364;-1.480;2024-03-08T12:33:50;35.63;;;19.43;;
21258;SDS011;10787;53.364;-1.480;2024-03-08T12:36:49;30.23;;;19.47;;
21258;SDS011;10787;53.364;-1.480;2024-03-08T12:39:37;30.67;;;19.03;;
21258;SDS011;10787;53.364;-1.480;2024-03-08T12:42:24;33.27;;;19.13;;
21258;SDS011;10787;53.364;-1.480;2024-03-08T12:45:09;28.97;;;19.33;;
21258;SDS011;10787;53.364;-1.480;2024-03-08T12:47:54;32.37;;;20.10;;
21258;SDS011;10787;53.364;-1.480;2024-03-08T12:50:39;30.43;;;19.50;;
21258;SDS011;10787;53.364;-1.480;2024-03-08T12:53:23;30.40;;;19.70;;
21258;SDS011;10787;53.364;-1.480;2024-03-08T12:56:08;29.30;;;19.60;;
21258;SDS011;10787;53.364;-1.480;2024-03-08T12:58:53;29.77;;;19.33;;
21258;SDS011;10787;53.364;-1.480;2024-03-08T13:01:37;28.70;;;18.83;;
21258;SDS011;10787;53.364;-1.480;2024-03-08T13:04:21;31.33;;;19.07;;
21258;SDS011;10787;53.364;-1.480;2024-03-08T13:07:05;30.00;;;19.97;;
21258;SDS011;10787;53.364;-1.480;2024-03-08T13:09:50;31.07;;;19.37;;
21258;SDS011;10787;53.364;-1.480;2024-03-08T13:12:34;29.42;;;19.65;;
21258;SDS011;10787;53.364;-1.480;2024-03-08T13:15:21;28.48;;;20.05;;
21258;SDS011;10787;53.364;-1.480;2024-03-08T13:18:06;32.63;;;21.00;;
21258;SDS011;10787;53.364;-1.480;2024-03-08T13:20:52;30.60;;;21.13;;
21258;SDS011;10787;53.364;-1.480;2024-03-08T13:23:38;35.35;;;21.77;;
21258;SDS011;10787;53.364;-1.480;2024-03-08T13:26:23;30.63;;;20.70;;
21258;SDS011;10787;53.364;-1.480;2024-03-08T13:29:09;31.33;;;20.07;;
21258;SDS011;10787;53.364;-1.480;2024-03-08T13:31:53;31.43;;;19.93;;
21258;SDS011;10787;53.364;-1.480;2024-03-08T13:34:43;33.20;;;20.53;;
21258;SDS011;10787;53.364;-1.480;2024-03-08T13:37:34;30.10;;;19.33;;
21258;SDS011;10787;53.364;-1.480;2024-03-08T13:40:18;36.13;;;20.50;;
21258;SDS011;10787;53.364;-1.480;2024-03-08T13:43:03;30.97;;;19.80;;
21258;SDS011;10787;53.364;-1.480;2024-03-08T13:45:48;32.53;;;20.23;;
21258;SDS011;10787;53.364;-1.480;2024-03-08T13:48:33;34.90;;;21.17;;
21258;SDS011;10787;53.364;-1.480;2024-03-08T13:51:17;38.23;;;21.53;;
21258;SDS011;10787;53.364;-1.480;2024-03-08T13:54:03;37.20;;;22.07;;
21258;SDS011;10787;53.364;-1.480;2024-03-08T13:56:50;39.07;;;22.37;;
21258;SDS011;10787;53.364;-1.480;2024-03-08T13:59:37;38.33;;;23.17;;
21258;SDS011;10787;53.364;-1.480;2024-03-08T14:02:22;34.63;;;21.63;;
21258;SDS011;10787;53.364;-1.480;2024-03-08T14:05:08;34.07;;;21.30;;
21258;SDS011;10787;53.364;-1.480;2024-03-08T14:07:54;35.57;;;21.13;;
21258;SDS011;10787;53.364;-1.480;2024-03-08T14:10:39;35.00;;;21.47;;
21258;SDS011;10787;53.364;-1.480;2024-03-08T14:13:23;38.50;;;22.97;;
21258;SDS011;10787;53.364;-1.480;2024-03-08T14:16:08;33.17;;;21.37;;
21258;SDS011;10787;53.364;-1.480;2024-03-08T14:18:54;35.50;;;21.73;;
21258;SDS011;10787;53.364;-1.480;2024-03-08T14:21:38;37.87;;;21.43;;
21258;SDS011;10787;53.364;-1.480;2024-03-08T14:24:23;34.77;;;21.17;;
21258;SDS011;10787;53.364;-1.480;2024-03-08T14:27:08;35.60;;;20.77;;
21258;SDS011;10787;53.364;-1.480;2024-03-08T14:29:53;32.27;;;19.60;;
21258;SDS011;10787;53.364;-1.480;2024-03-08T14:32:38;31.43;;;19.50;;
21258;SDS011;10787;53.364;-1.480;2024-03-08T14:35:25;30.83;;;20.03;;
21258;SDS011;10787;53.364;-1.480;2024-03-08T14:38:10;30.77;;;19.67;;
21258;SDS011;10787;53.364;-1.480;2024-03-08T14:40:55;30.87;;;20.07;;
21258;SDS011;10787;53.364;-1.480;2024-03-08T14:43:39;31.77;;;20.00;;
21258;SDS011;10787;53.364;-1.480;2024-03-08T14:46:28;32.13;;;19.80;;
21258;SDS011;10787;53.364;-1.480;2024-03-08T14:49:13;36.53;;;20.23;;
21258;SDS011;10787;53.364;-1.480;2024-03-08T14:51:57;32.20;;;20.50;;
21258;SDS011;10787;53.364;-1.480;2024-03-08T14:54:41;37.33;;;21.17;;
21258;SDS011;10787;53.364;-1.480;2024-03-08T14:57:26;36.50;;;20.70;;
21258;SDS011;10787;53.364;-1.480;2024-03-08T15:00:11;33.00;;;20.73;;
21258;SDS011;10787;53.364;-1.480;2024-03-08T15:03:01;35.87;;;20.33;;
21258;SDS011;10787;53.364;-1.480;2024-03-08T15:05:46;34.97;;;20.60;;
21258;SDS011;10787;53.364;-1.480;2024-03-08T15:08:32;31.93;;;19.93;;
21258;SDS011;10787;53.364;-1.480;2024-03-08T15:11:16;31.37;;;19.57;;
21258;SDS011;10787;53.364;-1.480;2024-03-08T15:14:08;32.67;;;18.87;;
21258;SDS011;10787;53.364;-1.480;2024-03-08T15:16:54;36.00;;;20.10;;
21258;SDS011;10787;53.364;-1.480;2024-03-08T15:19:39;35.37;;;20.83;;
21258;SDS011;10787;53.364;-1.480;2024-03-08T15:22:23;31.83;;;19.30;;
21258;SDS011;10787;53.364;-1.480;2024-03-08T15:25:08;29.43;;;18.80;;
21258;SDS011;10787;53.364;-1.480;2024-03-08T15:27:55;33.00;;;19.10;;
21258;SDS011;10787;53.364;-1.480;2024-03-08T15:30:41;33.33;;;18.80;;
21258;SDS011;10787;53.364;-1.480;2024-03-08T15:33:35;37.53;;;20.37;;
21258;SDS011;10787;53.364;-1.480;2024-03-08T15:36:27;33.77;;;19.70;;
21258;SDS011;10787;53.364;-1.480;2024-03-08T15:39:17;33.37;;;19.97;;
21258;SDS011;10787;53.364;-1.480;2024-03-08T15:42:04;38.83;;;20.60;;
21258;SDS011;10787;53.364;-1.480;2024-03-08T15:44:48;35.47;;;20.57;;
21258;SDS011;10787;53.364;-1.480;2024-03-08T15:47:33;34.37;;;20.13;;
21258;SDS011;10787;53.364;-1.480;2024-03-08T15:50:17;31.20;;;19.43;;
21258;SDS011;10787;53.364;-1.480;2024-03-08T15:53:02;36.67;;;20.53;;
21258;SDS011;10787;53.364;-1.480;2024-03-08T15:55:47;35.07;;;19.43;;
21258;SDS011;10787;53.364;-1.480;2024-03-08T15:58:32;33.33;;;19.07;;